Latest Weather Observations for Merimbula

IDN60801

Issued at 7:04 am EST Tuesday 4 August 2015 (issued every 30 minutes, with the page automatically refreshed every 10 minutes)

About weather observations | Map of weather stations | Latest weather observations for NSW | Other Formats
Station Details ID: 069147 Name: MERIMBULA AIRPORT AWS Lat: -36.91 Lon: 149.90 Height: 1.5 m
Data from the previous 72 hours. | See also: Recent months at Merimbula
Date/Time
EST
Temp
°C
App
Temp
°C
Dew
Point
Rel
Hum
%
Delta-T
°C
Wind Press
QNH
hPa
Press
MSL
hPa
Rain
since 9 am
mm
Dir
 
Spd
km/h
Gust
km/h
Spd
kts
Gust
kts
04/07:00am 3.9 -0.4 -1.7 67 2.0 WSW 11 13 6 7 1022.1 1022.1 0.0
04/06:30am 4.4 -0.3 -1.8 64 2.2 W 13 22 7 12 1022.2 1022.2 0.0
04/06:00am 4.2 0.2 -2.0 64 2.2 WNW 9 13 5 7 1022.1 1022.1 0.0
04/05:30am 4.6 -0.1 -1.8 63 2.3 W 13 19 7 10 1021.8 1021.8 0.0
04/05:00am 4.6 -0.1 -1.6 64 2.2 W 13 19 7 10 1021.5 1021.5 0.0
04/04:30am 4.7 -0.4 -1.7 63 2.3 W 15 22 8 12 1021.5 1021.5 0.0
04/04:00am 4.5 -0.5 -1.3 66 2.1 W 15 20 8 11 1021.4 1021.4 0.0
04/03:30am 4.4 0.5 -1.6 65 2.2 W 9 15 5 8 1021.7 1021.7 0.0
04/03:00am 5.0 0.4 -1.4 63 2.3 W 13 24 7 13 1021.6 1021.6 0.0
04/02:30am 5.1 0.8 -1.3 63 2.4 WNW 11 17 6 9 1021.8 1021.8 0.0
04/02:00am 4.8 -0.1 -0.8 67 2.1 W 15 22 8 12 1021.8 1021.8 0.0
04/01:30am 4.0 -0.1 -0.2 74 1.6 WNW 11 15 6 8 1022.2 1022.2 0.0
04/01:00am 4.3 0.3 0.3 75 1.5 WNW 11 13 6 7 1022.0 1022.0 0.0
04/12:30am 5.0 0.4 -0.8 66 2.2 WNW 13 20 7 11 1021.9 1021.9 0.0
04/12:00am 4.9 -0.1 -0.9 66 2.1 WNW 15 19 8 10 1021.8 1021.8 0.0
 
Date/Time
EST
Temp
°C
App
Temp
°C
Dew
Point
Rel
Hum
%
Delta-T
°C
Wind Press
QNH
hPa
Press
MSL
hPa
Rain
since 9 am
mm
Dir
 
Spd
km/h
Gust
km/h
Spd
kts
Gust
kts
03/11:30pm 4.0 -0.2 1.4 83 1.0 NW 13 15 7 8 1021.6 1021.6 0.0
03/11:00pm 2.7 0.2 -1.1 76 1.4 WSW 2 9 1 5 1021.5 1021.5 0.0
03/10:30pm 4.2 0.3 1.2 81 1.2 NW 11 15 6 8 1021.5 1021.5 0.0
03/10:00pm 2.8 -0.9 -0.3 80 1.1 WSW 9 13 5 7 1021.4 1021.4 0.0
03/09:30pm 3.8 0.3 -1.2 70 1.8 WNW 7 11 4 6 1021.2 1021.2 0.0
03/09:00pm 5.6 1.5 -0.4 65 2.3 NNW 11 13 6 7 1020.8 1020.8 0.0
03/08:30pm 4.1 0.6 -1.5 67 2.0 WSW 7 9 4 5 1020.5 1020.5 0.0
03/08:00pm 5.0 2.3 -2.1 60 2.5 NW 2 7 1 4 1020.4 1020.4 0.0
03/07:30pm 7.0 2.2 -2.2 52 3.4 W 13 17 7 9 1019.9 1019.9 0.0
03/07:00pm 7.8 2.2 -2.5 48 3.8 WSW 17 24 9 13 1019.4 1019.4 0.0
03/06:30pm 8.2 2.1 -2.7 46 4.0 WSW 20 35 11 19 1019.1 1019.1 0.0
03/06:00pm 7.9 3.1 -2.4 48 3.8 SW 13 22 7 12 1018.6 1018.6 0.0
03/05:30pm 8.6 2.7 -2.3 46 4.1 SW 19 33 10 18 1018.0 1018.0 0.0
03/05:00pm 8.8 4.8 -1.9 47 4.0 SSW 9 17 5 9 1017.3 1017.3 0.0
03/04:30pm 9.9 3.9 -1.8 44 4.5 SW 20 35 11 19 1016.6 1016.6 0.0
03/04:00pm 10.1 4.0 -2.5 41 4.8 WSW 20 46 11 25 1016.0 1016.0 0.0
03/03:30pm 11.3 5.8 -2.1 39 5.2 SW 17 28 9 15 1015.1 1015.1 0.0
03/03:00pm 10.9 4.2 -1.2 43 4.8 SW 24 41 13 22 1014.6 1014.6 0.0
03/02:30pm 10.6 3.0 -1.8 42 4.8 SW 28 52 15 28 1014.0 1014.0 0.0
03/02:11pm 10.0 2.6 -0.8 47 4.3 WSW 28 50 15 27 1013.6 1013.6 0.0
03/02:00pm 9.7 3.2 0.6 53 3.7 SW 24 37 13 20 1013.6 1013.6 0.0
03/01:30pm 9.5 1.7 1.9 59 3.2 SSW 32 50 17 27 1013.4 1013.4 0.0
03/01:22pm 9.7 2.7 2.1 59 3.2 SW 28 50 15 27 1013.2 1013.2 0.0
03/01:00pm 9.5 3.4 3.0 64 2.8 SW 24 39 13 21 1013.1 1013.1 0.0
03/12:30pm 9.4 2.5 4.4 71 2.2 SSW 30 41 16 22 1012.0 1012.0 0.0
03/12:04pm 9.4 2.9 4.6 72 2.1 SSW 28 48 15 26 1011.8 1011.8 0.0
03/12:00pm 9.4 3.3 4.6 72 2.1 SSW 26 43 14 23 1011.7 1011.7 0.0
03/11:38am 10.0 3.4 4.4 68 2.5 SSW 28 46 15 25 1011.3 1011.3 0.0
03/11:30am 10.3 3.3 4.0 65 2.8 SSW 30 46 16 25 1011.3 1011.3 0.0
03/11:25am 10.8 4.1 3.8 62 3.1 SSW 28 46 15 25 1011.5 1011.5 0.0
03/11:00am 15.5 10.1 1.3 38 6.2 W 19 32 10 17 1011.0 1011.0 0.0
03/10:30am 15.6 8.8 1.0 37 6.3 W 26 41 14 22 1010.6 1010.6 0.0
03/10:17am 15.3 9.7 1.4 39 6.1 W 20 43 11 23 1010.7 1010.7 0.0
03/10:00am 14.1 10.3 2.0 44 5.3 WNW 11 20 6 11 1010.5 1010.5 0.0
03/09:30am 12.8 11.9 5.9 63 3.2 CALM 0 0 0 0 1010.1 1010.1 0.0
03/09:00am 8.9 7.9 5.5 79 1.5 CALM 0 0 0 0 1010.3 1010.3 0.2
03/08:30am 6.1 4.9 4.4 89 0.7 CALM 0 0 0 0 1010.0 1010.0 0.2
03/08:00am 4.0 2.6 3.4 96 0.2 CALM 0 0 0 0 1009.9 1009.9 0.2
03/07:30am 1.3 -0.6 0.6 95 0.3 CALM 0 0 0 0 1009.7 1009.7 0.2
03/07:00am 1.5 -1.2 0.6 94 0.3 WSW 4 9 2 5 1009.5 1009.5 0.2
03/06:30am 1.3 -0.6 0.4 94 0.3 CALM 0 0 0 0 1009.3 1009.3 0.2
03/06:00am 1.5 -1.5 0.5 93 0.4 SW 6 13 3 7 1008.8 1008.8 0.0
03/05:30am 1.8 -1.2 0.9 94 0.3 SW 6 11 3 6 1008.5 1008.5 0.0
03/05:00am 1.6 -0.3 0.6 93 0.4 CALM 0 0 0 0 1008.5 1008.5 0.0
03/04:30am 1.5 -0.4 0.5 93 0.4 CALM 0 0 0 0 1008.2 1008.2 0.0
03/04:00am 2.2 -1.7 0.9 91 0.5 SSW 11 15 6 8 1008.0 1008.0 0.0
03/03:30am 2.6 0.0 1.0 89 0.6 WNW 4 9 2 5 1008.0 1008.0 0.0
03/03:00am 3.3 -0.6 1.3 87 0.8 SSW 11 15 6 8 1008.4 1008.4 0.0
03/02:30am 3.2 0.1 1.1 86 0.8 SSW 7 11 4 6 1008.4 1008.4 0.0
03/02:00am 4.1 2.4 2.1 87 0.8 CALM 0 0 0 0 1008.5 1008.5 0.0
03/01:30am 6.2 2.6 3.0 80 1.3 NW 11 15 6 8 1009.0 1009.0 0.0
03/01:00am 6.7 2.4 3.0 77 1.5 NW 15 20 8 11 1009.3 1009.3 0.0
03/12:30am 5.1 1.6 3.4 89 0.7 WNW 11 15 6 8 1009.5 1009.5 0.0
03/12:00am 5.1 2.0 3.6 90 0.6 WNW 9 13 5 7 1010.2 1010.2 0.0
 
Date/Time
EST
Temp
°C
App
Temp
°C
Dew
Point
Rel
Hum
%
Delta-T
°C
Wind Press
QNH
hPa
Press
MSL
hPa
Rain
since 9 am
mm
Dir
 
Spd
km/h
Gust
km/h
Spd
kts
Gust
kts
02/11:30pm 5.4 2.3 3.7 89 0.7 NNW 9 13 5 7 1010.7 1010.7 0.0
02/11:00pm 6.0 2.7 4.5 90 0.6 NNW 11 15 6 8 1011.3 1011.3 0.0
02/10:30pm 6.3 2.7 4.9 91 0.6 NW 13 19 7 10 1011.4 1011.4 0.0
02/10:00pm 7.2 4.5 5.8 91 0.6 NW 9 15 5 8 1011.3 1011.3 0.0
02/09:30pm 6.5 2.1 2.8 77 1.5 WNW 15 20 8 11 1011.2 1011.2 0.0
02/09:22pm 6.7 3.3 6.0 95 0.3 WNW 13 19 7 10 1011.2 1011.2 0.0
02/09:00pm 6.3 5.3 5.6 95 0.3 CALM 0 0 0 0 1011.3 1011.3 0.0
02/08:52pm 6.6 5.6 5.7 94 0.4 CALM 0 0 0 0 1011.3 1011.3 0.0
02/08:48pm 6.5 5.5 5.5 93 0.4 CALM 0 0 0 0 1011.3 1011.3 0.0
02/08:35pm 7.1 6.2 6.2 94 0.4 CALM 0 0 0 0 1011.0 1011.0 0.0
02/08:30pm 6.8 5.8 5.7 93 0.5 CALM 0 0 0 0 1011.0 1011.0 0.0
02/08:00pm 7.5 6.7 6.4 93 0.5 CALM 0 0 0 0 1011.0 1011.0 0.0
02/07:30pm 8.3 6.9 7.2 93 0.5 SW 4 9 2 5 1010.7 1010.7 0.0
02/07:00pm 9.0 7.2 7.9 93 0.5 NW 7 9 4 5 1010.1 1010.1 0.0
02/06:30pm 9.4 7.8 8.0 91 0.7 NNW 6 11 3 6 1009.6 1009.6 0.0
02/06:00pm 9.6 8.7 7.9 89 0.8 N 2 9 1 5 1009.1 1009.1 0.0
02/05:30pm 9.9 9.2 6.8 81 1.5 CALM 0 0 0 0 1008.9 1008.9 0.0
02/05:00pm 12.4 10.3 8.3 76 2.0 ESE 9 15 5 8 1008.6 1008.6 0.0
02/04:30pm 13.8 12.3 9.3 74 2.3 SE 7 11 4 6 1008.1 1008.1 0.0
02/04:00pm 14.0 12.1 9.0 72 2.5 SE 9 13 5 7 1007.6 1007.6 0.0
02/03:30pm 14.0 11.3 8.8 71 2.6 ESE 13 20 7 11 1007.3 1007.3 0.0
02/03:00pm 14.3 10.9 9.1 71 2.7 SE 17 24 9 13 1007.4 1007.4 0.0
02/02:30pm 14.2 11.8 8.8 70 2.7 ESE 11 17 6 9 1006.9 1006.9 0.0
02/02:00pm 15.2 12.8 10.0 71 2.7 SE 13 19 7 10 1007.1 1007.1 0.0
02/01:30pm 15.0 12.0 9.4 69 2.9 SE 15 20 8 11 1007.5 1007.5 0.0
02/01:00pm 14.2 12.4 9.4 73 2.5 S 9 15 5 8 1008.2 1008.2 0.0
02/12:30pm 13.1 9.8 9.4 78 1.9 SSW 17 24 9 13 1008.6 1008.6 0.0
02/12:00pm 14.1 11.1 9.1 72 2.5 S 15 24 8 13 1008.8 1008.8 0.0
02/11:30am 15.2 12.8 10.2 72 2.6 SSE 13 19 7 10 1008.8 1008.8 0.0
02/11:00am 14.2 12.7 10.6 79 1.9 SE 9 15 5 8 1009.5 1009.5 0.0
02/10:30am 13.6 13.6 9.8 78 2.0 CALM 0 0 0 0 1009.5 1009.5 0.0
02/10:00am 13.2 12.0 10.2 82 1.6 NNW 7 9 4 5 1009.9 1009.9 0.0
02/09:56am 13.0 11.3 10.0 82 1.5 NW 9 13 5 7 1009.8 1009.8 0.0
02/09:30am 12.2 11.0 10.4 89 0.9 WNW 7 11 4 6 1009.8 1009.8 0.0
02/09:00am 10.9 10.7 9.2 89 0.8 CALM 0 0 0 0 1010.1 1010.1 0.8
02/08:30am 10.4 10.2 9.2 92 0.6 CALM 0 0 0 0 1010.7 1010.7 0.8
02/08:00am 9.8 9.5 8.7 93 0.5 CALM 0 0 0 0 1011.4 1011.4 0.8
02/07:30am 9.4 8.6 8.3 93 0.5 WSW 2 7 1 4 1011.6 1011.6 0.8
02/07:00am 9.2 7.4 8.1 93 0.5 SW 7 11 4 6 1011.8 1011.8 0.8
02/06:30am 9.2 8.7 8.0 92 0.6 CALM 0 0 0 0 1012.5 1012.5 0.8
02/06:00am 9.2 8.7 7.8 91 0.7 CALM 0 0 0 0 1012.5 1012.5 0.8
02/05:30am 9.2 8.7 7.8 91 0.7 CALM 0 0 0 0 1012.7 1012.7 0.8
02/05:00am 9.2 8.7 7.8 91 0.7 CALM 0 0 0 0 1013.3 1013.3 0.8
02/04:30am 9.1 8.5 7.5 90 0.8 CALM 0 0 0 0 1013.4 1013.4 0.8
02/04:00am 9.2 8.6 7.6 90 0.8 CALM 0 0 0 0 1014.3 1014.3 0.8
02/03:30am 9.2 8.6 7.5 89 0.8 CALM 0 0 0 0 1015.1 1015.1 0.8
02/03:01am 8.9 8.3 7.2 89 0.8 CALM 0 0 0 0 1015.2 1015.2 0.8
02/03:00am 8.9 8.3 7.2 89 0.8 CALM 0 0 0 0 1015.1 1015.1 0.8
02/02:30am 8.9 7.8 7.0 88 0.9 NNE 2 7 1 4 1015.1 1015.1 0.8
02/02:00am 8.9 6.9 7.2 89 0.8 N 7 11 4 6 1015.8 1015.8 0.8
02/01:30am 9.3 7.5 8.1 92 0.6 NW 7 11 4 6 1015.9 1015.9 0.8
02/01:00am 9.4 7.3 8.2 92 0.6 NW 9 13 5 7 1016.2 1016.2 0.8
02/12:30am 9.4 7.3 8.3 93 0.5 NW 9 13 5 7 1016.5 1016.5 0.8
02/12:00am 9.5 8.0 8.4 93 0.5 WNW 6 7 3 4 1016.5 1016.5 0.8
 
Date/Time
EST
Temp
°C
App
Temp
°C
Dew
Point
Rel
Hum
%
Delta-T
°C
Wind Press
QNH
hPa
Press
MSL
hPa
Rain
since 9 am
mm
Dir
 
Spd
km/h
Gust
km/h
Spd
kts
Gust
kts
01/11:30pm 9.4 7.8 8.2 92 0.6 NNW 6 9 3 5 1016.3 1016.3 0.8
01/11:00pm 9.4 9.0 8.3 93 0.5 CALM 0 0 0 0 1016.4 1016.4 0.8
01/10:30pm 9.1 8.6 8.0 93 0.5 CALM 0 0 0 0 1016.4 1016.4 0.8
01/10:00pm 9.1 8.6 7.9 92 0.6 CALM 0 0 0 0 1016.4 1016.4 0.8
01/09:30pm 9.1 8.6 7.7 91 0.7 CALM 0 0 0 0 1016.5 1016.5 0.8
01/09:00pm 9.3 8.9 8.1 92 0.6 CALM 0 0 0 0 1016.7 1016.7 0.6
01/08:30pm 9.3 8.8 7.7 90 0.8 CALM 0 0 0 0 1016.8 1016.8 0.6
01/08:00pm 9.3 7.0 7.6 89 0.8 SSE 9 13 5 7 1016.1 1016.1 0.6
01/07:30pm 9.6 6.7 8.0 90 0.8 SSE 13 19 7 10 1016.0 1016.0 0.6
01/07:00pm 10.0 7.1 8.3 89 0.8 SSE 13 19 7 10 1015.7 1015.7 0.6
01/06:30pm 10.3 8.4 8.9 91 0.7 SE 9 15 5 8 1015.2 1015.2 0.6
01/06:00pm 10.3 8.9 8.9 91 0.7 S 6 11 3 6 1014.6 1014.6 0.6
01/05:30pm 10.6 9.1 9.2 91 0.7 SSE 7 9 4 5 1014.7 1014.7 0.2
01/05:00pm 10.9 8.3 9.5 91 0.7 S 13 17 7 9 1014.0 1014.0 0.2
01/04:30pm 11.8 8.0 9.2 84 1.3 S 19 26 10 14 1013.5 1013.5 0.0
01/04:00pm 12.9 9.3 9.7 81 1.6 S 19 28 10 15 1012.9 1012.9 0.0
01/03:30pm 14.3 11.0 9.5 73 2.5 SSE 17 26 9 14 1012.0 1012.0 0.0
01/03:00pm 15.1 10.7 8.8 66 3.2 SSE 22 35 12 19 1011.9 1011.9 0.0
01/02:30pm 16.0 13.2 8.7 62 3.7 SSE 13 24 7 13 1011.1 1011.1 0.0
01/02:00pm 16.9 16.5 8.3 57 4.4 CALM 0 0 0 0 1009.6 1009.6 0.0
01/01:30pm 17.7 15.3 7.2 50 5.3 NE 9 15 5 8 1009.4 1009.4 0.0
01/01:00pm 18.3 17.4 7.7 50 5.4 ENE 2 9 1 5 1009.4 1009.4 0.0
01/12:30pm 17.7 17.1 7.4 51 5.2 CALM 0 0 0 0 1009.2 1009.2 0.0
01/12:00pm 17.8 15.7 8.1 53 5.0 SSW 9 13 5 7 1009.8 1009.8 0.0
01/11:30am 16.5 14.6 7.7 56 4.4 SSW 7 13 4 7 1009.9 1009.9 0.0
01/11:00am 15.1 14.2 7.6 61 3.7 ENE 2 6 1 3 1009.9 1009.9 0.0
01/10:30am 13.7 11.5 7.9 68 2.9 SW 9 13 5 7 1010.0 1010.0 0.0
01/10:00am 12.6 11.3 7.5 71 2.5 WSW 4 6 2 3 1010.1 1010.1 0.0
01/09:30am 11.7 9.8 6.8 72 2.3 SW 6 9 3 5 1010.8 1010.8 0.0
01/09:00am 10.0 7.4 6.3 78 1.7 SW 9 11 5 6 1011.4 1011.4 0.0
01/08:30am 8.4 6.4 6.4 87 0.9 NW 6 11 3 6 1011.6 1011.6 0.0
01/08:00am 7.1 6.0 5.3 88 0.8 CALM 0 0 0 0 1011.8 1011.8 0.0
01/07:30am 7.2 6.2 5.5 89 0.8 CALM 0 0 0 0 1011.9 1011.9 0.0

Other Formats:

Comma delimited format used in spreadsheet applications
http://www.bom.gov.au/fwo/IDN60801/IDN60801.95929.axf

JavaScript Object Notation format (JSON) in row-major order
http://www.bom.gov.au/fwo/IDN60801/IDN60801.95929.json